Keysville, GA (30811)

11:19 AM EDT on August 01, 2015 (GMT -0400)
Heatwole Family Allen Rd.,North Burke County | | Change Station
CLOSE
Current Station
Personal Weather Station
Location: Hephzibah, GA
Elevation: 364 ft
Nearby Weather Stations

Elev 364 ft 33.19 °N, 82.02 °W | Updated 2 minutes ago

Partly Cloudy
Partly Cloudy
86.9 °F
Feels Like 98 °F
N
3.1
Wind Variable Wind from North
Gusts 5.0 mph

Today
High -- | Low -- °F
--% Chance of Precip.
Yesterday
High -- | Low -- °F
Precip. -- in
6:41 AM 8:28 PM
Full, 98% visible
Pressure 29.94 in
Visibility 10.0 miles
Clouds Few 4900 ft
Scattered Clouds 6000 ft
Mostly Cloudy 10000 ft
Heat Index 98 °F
Dew Point 77 °F
Humidity 72%
Rainfall 0.00 in
Snow Depth Not available.
UV 4 out of 12
Pollen 4.70 out of 12
Air Quality Not available.
Flu Activity Not available.
METAR KAGS 011453Z 09004KT 10SM FEW049 SCT060 BKN100 29/23 A2994 RMK AO2 SLP137 T02940228 51006

More Conditions Fewer Conditions

Pressure 29.94 in
Visibility 10.0 miles
Clouds Few 4900 ft
Scattered Clouds 6000 ft
Mostly Cloudy 10000 ft
Heat Index 98 °F
Dew Point 77 °F
Humidity 72%
Rainfall 0.00 in
Snow Depth Not available.
UV 4 out of 12
Pollen 4.70 out of 12
Air Quality Not available.
Flu Activity Not available.
METAR KAGS 011453Z 09004KT 10SM FEW049 SCT060 BKN100 29/23 A2994 RMK AO2 SLP137 T02940228 51006

More Conditions Fewer Conditions

10-Day Weather Forecast

×

Almanac

Astronomy

Aug. 01, 2015 Rise Set
Actual Time
Civil Twilight
Nautical Twilight
Astronomical Twilight
Moon
Length of Visible Light
Length of Day
Tomorrow will be .
, % of the Moon is Illuminated

Today's Extremes

State Highs State Lows

Community

WunderPhotos

Upload Photos

1,842,959 photos uploaded!

WunderBlogs® & News

Nearby

Air Quality

  Air Quality AQ Index Pollutant
Not available.

Snow Depth

Station Depth Elevation

Earthquake Activity

City Distance Mag. Time & Date
Minimum magnitude displayed is 2.5.

Coastal Water Temperatures

Place Temperature

Stations

Nearby Weather Stations

Station Location Temp. Windchill Dew Point Humidity Wind Precip. Elev Updated Type